KBLI/BLI METAR and TAF weather

Enter ICAO airport designator
Station Type Date Time Source
KBLI METAR 2018/10/22 15:53 UTC NOAA

KBLI 221553Z 00000KT M1/4SM R16/0700V0800FT FG VV001 07/05 A3000 RMK AO2 SLP165 T00720050


Station Type Date Time Source
KBLI Decoded METAR 2018/10/22 15:53 UTC NOAA

BELLINGHAM INTERNATIONAL AIRPORT, WA, United States (KBLI) 48-48N 122-32W 50M
Oct 22, 2018 - 11:53 AM EDT / 2018.10.22 1553 UTC
Wind: Calm (direction variable):0
Visibility: less than 1/4 mile(s):1
Sky conditions: obscured
Weather: fog
Temperature: 45.0 F (7.2 C)
Dew Point: 41.0 F (5.0 C)
Relative Humidity: 85%
Pressure (altimeter): 30 in. Hg (1015 hPa)
ob: KBLI 221553Z 00000KT M1/4SM R16/0700V0800FT FG VV001 07/05 A3000 RMK AO2 SLP165 T00720050
cycle: 16

Station Type Date Time Source
KBLI TAF 2018/10/22 12:34 UTC NOAA

TAF KBLI 221131Z 2212/2312 00000KT 1/4SM FG VV001
FM221800 VRB03KT 3SM BR BKN006
FM222000 VRB03KT P6SM SKC
FM230600 00000KT 2SM BR SCT002
FM230900 00000KT 1/2SM FG VV002


Example: see airport list